Etusivu
METAR-TAF:

METAR-TAF

Lentoasemat :

Hōfu, Japani

Leveyspiiri: 34-02N, Pituuspiiri: 131-33E, korkeus merenpinnasta: 2 m

Tämänhetkinen sää

Tämä raportti tehtiin 54 minuuttia sitten, kello 10.11 UTC
Tuuli 13 kn luoteesta
Lämpötila 2°C
Kosteus 64%
Ilmanpaine 1014 hPa
Näkyvyys 10 km tai enemmän
Muutamia pilviä 1000 ft:n korkeudessa
Hajonneita pilviä 3000 ft:n korkeudessa
heikkoja lumikuuroja

METAR: RJOF 171011Z 31013KT 9999 -SHSN FEW010 BKN030 02/M04 Q1014 RMK 1CU010 5CU030 A2995 MAX WIND 21KT

Aika: 20:05 (11:05 UTC)


TAF: puuttuu

Säähavainnot ja -ennusteet yli 4000 lentoasemalta (METAR- ja TAF-raportit).

Käytössä olevat sääasemat on merkitty karttaan keltaisilla ja punaisilla pisteillä.

Aseta hiiri pisteen päälle nähdäksesi sääaseman nimen.

Klikkaa sitten nähdäksesi säähavainnot ja -ennusteet.

Kartan vaihtaminen: klikkaa mustalla rastilla varustettuja vihreitä pisteitä, niin voit zoomata sisään; viivalla varustettua vihreää pistettä, niin voit zoomata ulos tai vihreitä nuolia, niin pääset viereisille kartoille.


METAR-TAF: